Time;durP1;ratioP1;P1;durP2;ratioP2;P2;SDS_P1;SDS_P2;PMS_P1;PMS_P2;Temp;Humidity;BMP_temperature;BMP_pressure;BME280_temperature;BME280_humidity;BME280_pressure;Samples;Min_cycle;Max_cycle;Signal;HPM_P1;HPM_P2
2023/06/15 00:01:29;;;;;;;7.07;5.90;;;;;;;16.15;100.00;95536.75;4965047;28;20062;-88
2023/06/15 00:03:54;;;;;;;9.38;6.22;;;;;;;16.09;100.00;95530.47;4965532;28;20073;-89
2023/06/15 00:06:20;;;;;;;8.30;6.80;;;;;;;16.10;100.00;95528.66;4967722;28;20113;-86
2023/06/15 00:08:45;;;;;;;7.85;7.28;;;;;;;16.18;100.00;95534.53;4981596;28;20504;-87
2023/06/15 00:11:11;;;;;;;7.43;6.72;;;;;;;16.18;100.00;95539.00;4966728;28;20048;-87
2023/06/15 00:13:36;;;;;;;8.65;6.57;;;;;;;16.11;100.00;95538.13;4983117;28;20037;-92
2023/06/15 00:16:02;;;;;;;7.55;6.88;;;;;;;16.05;100.00;95546.72;4969231;28;20040;-92
2023/06/15 00:18:28;;;;;;;8.45;7.30;;;;;;;16.10;100.00;95558.22;4969204;28;20430;-93
2023/06/15 00:20:55;;;;;;;8.93;8.10;;;;;;;16.21;100.00;95568.16;4967799;28;20026;-90
2023/06/15 00:23:26;;;;;;;8.98;7.28;;;;;;;16.26;100.00;95565.78;4968980;28;20034;-89
2023/06/15 00:25:53;;;;;;;11.88;7.88;;;;;;;16.26;100.00;95565.78;4968297;28;20030;-90
2023/06/15 00:28:19;;;;;;;9.15;8.35;;;;;;;16.23;100.00;95566.16;4969172;28;20034;-94
2023/06/15 00:30:45;;;;;;;9.90;8.95;;;;;;;16.13;100.00;95573.53;4967920;28;20558;-95
2023/06/15 00:33:10;;;;;;;9.65;8.77;;;;;;;16.11;100.00;95580.75;4969094;28;20023;-96
2023/06/15 00:35:36;;;;;;;9.55;8.65;;;;;;;16.05;100.00;95567.63;4983461;28;20104;-87
2023/06/15 00:38:01;;;;;;;8.90;8.10;;;;;;;16.07;100.00;95553.38;4983616;28;20045;-94
2023/06/15 00:40:27;;;;;;;11.93;10.93;;;;;;;16.11;100.00;95553.81;4969311;28;20033;-95
2023/06/15 00:42:52;;;;;;;9.88;8.88;;;;;;;16.06;100.00;95570.03;4967207;28;20862;-94
2023/06/15 00:45:18;;;;;;;9.38;7.40;;;;;;;16.13;100.00;95573.53;4966822;28;20714;-92
2023/06/15 00:47:43;;;;;;;9.68;7.30;;;;;;;16.02;100.00;95563.56;4953909;28;20046;-95
2023/06/15 00:50:11;;;;;;;11.18;8.80;;;;;;;16.10;100.00;95573.09;4967536;28;20054;-94
2023/06/15 00:52:37;;;;;;;8.70;7.57;;;;;;;16.01;100.00;95561.16;4967251;28;20026;-93
2023/06/15 00:55:03;;;;;;;12.32;7.53;;;;;;;15.93;100.00;95567.31;4984627;28;20042;-94
2023/06/15 00:57:30;;;;;;;8.57;7.80;;;;;;;15.90;100.00;95583.38;4984499;28;20511;-94
2023/06/15 00:59:56;;;;;;;8.70;7.80;;;;;;;15.90;100.00;95601.66;4983433;28;20085;-93
2023/06/15 01:02:24;;;;;;;10.10;8.10;;;;;;;15.65;100.00;95582.13;4984349;28;20026;-91
2023/06/15 01:04:50;;;;;;;9.15;8.50;;;;;;;15.85;100.00;95624.94;4982937;28;20034;-89
2023/06/15 01:07:16;;;;;;;10.75;7.60;;;;;;;15.78;100.00;95621.44;4968726;28;20113;-91
2023/06/15 01:09:42;;;;;;;8.35;7.75;;;;;;;15.79;100.00;95630.91;4966711;28;20026;-90
2023/06/15 01:12:11;;;;;;;10.35;9.32;;;;;;;15.79;100.00;95636.13;4985041;28;20037;-90
2023/06/15 01:14:37;;;;;;;9.23;8.45;;;;;;;15.93;100.00;95658.78;4964579;28;20033;-91
2023/06/15 01:17:05;;;;;;;9.80;9.02;;;;;;;15.75;100.00;95659.19;4967157;28;20034;-89
2023/06/15 01:19:39;;;;;;;9.95;8.55;;;;;;;15.85;100.00;95666.75;4966053;28;20040;-92
2023/06/15 01:22:16;;;;;;;10.88;9.98;;;;;;;15.82;100.00;95654.06;4959976;28;20469;-91
2023/06/15 01:24:45;;;;;;;10.52;9.40;;;;;;;15.97;100.00;95675.69;4957692;28;20121;-90
2023/06/15 01:27:11;;;;;;;9.88;8.90;;;;;;;15.96;100.00;95666.22;4967137;28;20483;-91
2023/06/15 01:29:41;;;;;;;13.25;9.15;;;;;;;15.98;100.00;95660.84;4968245;28;20044;-91
2023/06/15 01:32:07;;;;;;;12.77;8.93;;;;;;;15.93;100.00;95647.50;4984459;28;20033;-96
2023/06/15 01:34:33;;;;;;;9.27;8.48;;;;;;;15.97;100.00;95651.38;4966995;28;20121;-95
2023/06/15 01:36:58;;;;;;;10.55;9.65;;;;;;;15.92;100.00;95631.03;4968263;28;20030;-93
2023/06/15 01:39:23;;;;;;;12.90;9.23;;;;;;;15.91;100.00;95636.44;4982998;28;20081;-94
2023/06/15 01:41:49;;;;;;;12.05;9.20;;;;;;;15.89;100.00;95626.19;4984613;28;20015;-95
2023/06/15 01:44:15;;;;;;;11.88;10.50;;;;;;;15.77;100.00;95615.41;4983197;28;20050;-94
2023/06/15 01:46:41;;;;;;;13.48;12.25;;;;;;;15.75;100.00;95627.03;4968297;28;20093;-91
2023/06/15 01:49:06;;;;;;;10.15;9.45;;;;;;;15.62;100.00;95632.13;4968011;28;20030;-93
2023/06/15 01:51:32;;;;;;;12.98;11.25;;;;;;;15.63;100.00;95645.00;4984079;28;20062;-92
2023/06/15 01:53:57;;;;;;;12.48;11.32;;;;;;;15.57;100.00;95652.78;4968565;28;20038;-94
2023/06/15 01:56:23;;;;;;;14.82;10.65;;;;;;;15.61;100.00;95649.59;4966915;28;20385;-94
2023/06/15 01:58:49;;;;;;;11.43;9.98;;;;;;;15.59;100.00;95656.00;4968134;28;20030;-94
2023/06/15 02:01:14;;;;;;;11.35;9.55;;;;;;;15.55;100.00;95659.97;4966696;28;20441;-94
2023/06/15 02:03:40;;;;;;;10.35;9.55;;;;;;;15.61;100.00;95659.22;4984660;28;20061;-94
2023/06/15 02:06:05;;;;;;;9.98;8.90;;;;;;;15.59;100.00;95669.88;4982762;28;20030;-93
2023/06/15 02:08:31;;;;;;;9.80;8.90;;;;;;;15.59;100.00;95671.66;4972280;28;20511;-94
2023/06/15 02:10:56;;;;;;;10.70;9.70;;;;;;;15.60;100.00;95670.69;4967489;28;20033;-94
2023/06/15 02:13:22;;;;;;;10.70;9.88;;;;;;;15.55;100.00;95659.97;4983478;28;20026;-95
2023/06/15 02:15:48;;;;;;;10.13;8.77;;;;;;;15.39;100.00;95649.69;4968094;28;20041;-95
2023/06/15 02:18:14;;;;;;;8.73;7.85;;;;;;;15.30;100.00;95646.41;4966680;28;20081;-95
2023/06/15 02:20:43;;;;;;;10.63;9.65;;;;;;;15.39;100.00;95654.91;4968334;28;20423;-94
2023/06/15 02:23:09;;;;;;;;;;;;;;;15.32;100.00;95663.47;4966994;28;20562;-94
2023/06/15 02:25:34;;;;;;;11.43;10.10;;;;;;;15.21;100.00;95653.53;4968244;28;19953;-95
2023/06/15 02:28:00;;;;;;;11.57;10.63;;;;;;;15.15;100.00;95656.88;4967265;28;20037;-95
2023/06/15 02:30:26;;;;;;;10.18;9.38;;;;;;;15.11;100.00;95668.66;4966956;28;20078;-93
2023/06/15 02:32:53;;;;;;;11.82;10.63;;;;;;;15.11;100.00;95663.44;4984115;28;20034;-93
2023/06/15 02:35:19;;;;;;;14.32;11.15;;;;;;;15.11;100.00;95686.91;4985071;28;21052;-93
2023/06/15 02:37:45;;;;;;;11.40;10.35;;;;;;;15.11;100.00;95806.94;4972805;28;20455;-94
2023/06/15 02:40:10;;;;;;;11.85;10.73;;;;;;;15.06;100.00;95813.66;4970254;28;20093;-93
2023/06/15 02:42:37;;;;;;;12.85;11.73;;;;;;;15.01;100.00;95808.16;4972228;28;20582;-93
2023/06/15 02:45:03;;;;;;;14.10;11.55;;;;;;;14.95;100.00;95801.88;4970408;28;20036;-92
2023/06/15 02:47:32;;;;;;;13.68;12.40;;;;;;;14.88;100.00;95806.16;4971762;28;20696;-95
2023/06/15 02:49:59;;;;;;;;;;;;;;;14.83;100.00;95802.47;4971158;28;20054;-95
2023/06/15 02:52:30;;;;;;;11.75;10.75;;;;;;;14.90;100.00;95814.59;4986626;28;19913;-95
2023/06/15 02:54:57;;;;;;;12.07;11.18;;;;;;;14.90;100.00;95811.22;4987470;28;20030;-94
2023/06/15 02:57:23;;;;;;;12.38;11.07;;;;;;;14.92;100.00;95810.03;4969217;28;20030;-93
2023/06/15 02:59:49;;;;;;;11.52;10.30;;;;;;;14.97;100.00;95810.31;4987101;28;20059;-92
2023/06/15 03:02:15;;;;;;;10.48;9.73;;;;;;;14.96;100.00;95805.28;4969117;28;20034;-90
2023/06/15 03:04:47;;;;;;;11.95;10.80;;;;;;;15.09;100.00;95808.91;4987077;28;20411;-92
2023/06/15 03:07:20;;;;;;;29.20;19.50;;;;;;;14.92;100.00;95799.63;4962551;28;20093;-93
2023/06/15 03:09:46;;;;;;;15.90;11.85;;;;;;;14.73;100.00;95802.69;4976598;28;20950;-94
2023/06/15 03:12:12;;;;;;;11.13;10.15;;;;;;;15.03;100.00;95809.59;4971162;28;20026;-92
2023/06/15 03:14:37;;;;;;;19.25;14.18;;;;;;;14.82;100.00;95793.00;4985737;28;20042;-94
2023/06/15 03:17:04;;;;;;;11.60;10.50;;;;;;;14.85;100.00;95800.47;4970266;28;20069;-94
2023/06/15 03:19:30;;;;;;;15.40;12.32;;;;;;;14.94;100.00;95800.25;4965815;28;20597;-94
2023/06/15 03:21:57;;;;;;;13.32;11.75;;;;;;;14.95;100.00;95803.66;4987397;28;20033;-93
2023/06/15 03:24:23;;;;;;;13.55;11.30;;;;;;;15.01;100.00;95803.75;4976939;28;20026;-93
2023/06/15 03:26:49;;;;;;;11.70;10.68;;;;;;;15.24;100.00;95806.31;4969685;28;20034;-94
2023/06/15 03:29:15;;;;;;;11.75;10.63;;;;;;;15.27;100.00;95793.75;4972797;28;20029;-93
2023/06/15 03:31:41;;;;;;;13.70;12.45;;;;;;;15.27;100.00;95792.91;4968094;28;20117;-91
2023/06/15 03:34:10;;;;;;;11.93;10.75;;;;;;;15.29;100.00;95786.53;4968504;28;20424;-82
2023/06/15 03:36:36;;;;;;;11.57;10.63;;;;;;;15.41;100.00;95786.09;4961616;28;20035;-83
2023/06/15 03:39:03;;;;;;;13.65;10.35;;;;;;;15.48;100.00;95800.88;4980380;28;20041;-81
2023/06/15 03:41:30;;;;;;;17.15;11.00;;;;;;;15.53;100.00;95789.91;4979130;28;20058;-83
2023/06/15 03:43:56;;;;;;;12.45;11.43;;;;;;;15.56;100.00;95785.13;4980601;28;20034;-83
2023/06/15 03:46:22;;;;;;;11.38;10.27;;;;;;;15.68;100.00;95786.28;4980448;28;20121;-82
2023/06/15 03:48:48;;;;;;;12.10;11.20;;;;;;;15.77;100.00;95772.13;4979971;28;20398;-83
2023/06/15 03:51:14;;;;;;;12.38;10.57;;;;;;;15.79;100.00;95751.88;4981927;28;20033;-84
2023/06/15 03:53:43;;;;;;;10.15;9.38;;;;;;;15.97;100.00;95745.44;4980444;28;20018;-85
2023/06/15 03:56:08;;;;;;;10.27;9.38;;;;;;;16.16;100.00;95716.91;4964062;28;20038;-81
2023/06/15 03:58:34;;;;;;;10.20;9.32;;;;;;;16.47;100.00;95695.66;4980702;28;20808;-82
2023/06/15 04:01:00;;;;;;;10.63;9.52;;;;;;;17.28;100.00;95653.16;4981024;28;20117;-82
2023/06/15 04:03:26;;;;;;;6.80;6.30;;;;;;;19.64;100.00;95305.50;4975735;28;20045;-76
2023/06/15 04:05:52;;;;;;;7.65;4.93;;;;;;;21.29;100.00;94756.03;4984750;28;20045;-87
2023/06/15 04:08:18;;;;;;;3.88;3.58;;;;;;;22.06;100.00;94669.75;4985589;28;20030;-88
2023/06/15 04:10:44;;;;;;;4.22;3.83;;;;;;;22.16;100.00;94624.97;4965563;28;20049;-83
2023/06/15 04:13:09;;;;;;;3.28;3.00;;;;;;;22.50;100.00;94622.91;4985445;28;20018;-89
2023/06/15 04:15:34;;;;;;;3.53;3.33;;;;;;;21.87;100.00;94624.41;4966491;28;20412;-91
2023/06/15 04:18:00;;;;;;;5.00;4.65;;;;;;;19.92;100.00;94684.47;4968251;28;20525;-88
2023/06/15 04:20:30;;;;;;;6.05;5.55;;;;;;;19.58;100.00;94772.91;4982962;28;20026;-89
2023/06/15 04:22:58;;;;;;;5.50;5.07;;;;;;;20.17;100.00;94795.41;4984464;28;20049;-86
2023/06/15 04:25:27;;;;;;;5.78;5.10;;;;;;;19.84;100.00;94756.59;4979009;28;20058;-83
2023/06/15 04:27:53;;;;;;;6.93;6.22;;;;;;;19.65;100.00;94772.78;4982174;28;20044;-86
2023/06/15 04:30:24;;;;;;;5.10;4.60;;;;;;;20.65;100.00;94773.13;4982760;28;20066;-86
2023/06/15 04:32:57;;;;;;;5.07;4.32;;;;;;;20.95;100.00;94676.22;4965189;28;20033;-84
2023/06/15 04:35:28;;;;;;;4.40;4.00;;;;;;;20.28;100.00;94746.44;4981717;28;20042;-86
2023/06/15 04:37:58;;;;;;;6.45;6.05;;;;;;;19.27;100.00;94771.38;4981914;28;20461;-83
2023/06/15 04:40:26;;;;;;;7.25;6.75;;;;;;;19.31;100.00;94827.69;4980338;28;20022;-81
2023/06/15 04:42:57;;;;;;;6.90;6.25;;;;;;;19.30;100.00;94872.56;4982550;28;20053;-80
2023/06/15 04:45:23;;;;;;;6.28;5.80;;;;;;;19.16;100.00;94895.63;4979905;28;20038;-81
2023/06/15 04:47:49;;;;;;;6.93;6.38;;;;;;;19.20;100.00;94930.13;4981954;28;20146;-83
2023/06/15 04:50:14;;;;;;;7.55;7.15;;;;;;;18.78;100.00;94905.66;4980495;28;20495;-85
2023/06/15 04:52:40;;;;;;;7.35;6.00;;;;;;;18.95;100.00;94938.94;4982855;28;20063;-85
2023/06/15 04:55:06;;;;;;;6.75;6.25;;;;;;;19.01;100.00;94939.84;4981967;28;20034;-84
2023/06/15 04:57:31;;;;;;;7.13;6.43;;;;;;;19.07;100.00;94936.34;4981807;28;20076;-84
2023/06/15 04:59:57;;;;;;;6.90;6.30;;;;;;;18.97;100.00;94943.16;4981601;28;20031;-85
2023/06/15 05:02:22;;;;;;;6.55;6.13;;;;;;;18.98;100.00;94948.19;4980762;28;20077;-86
2023/06/15 05:04:48;;;;;;;7.07;6.47;;;;;;;19.06;100.00;94963.63;4982789;28;20108;-86
2023/06/15 05:07:13;;;;;;;7.97;7.38;;;;;;;19.07;100.00;94948.69;4980913;28;20026;-82
2023/06/15 05:09:39;;;;;;;8.35;7.75;;;;;;;18.67;100.00;94932.63;4981878;28;20026;-86
2023/06/15 05:12:05;;;;;;;8.60;7.88;;;;;;;18.87;100.00;94954.19;4980456;28;20034;-84
2023/06/15 05:14:30;;;;;;;8.57;7.80;;;;;;;19.15;100.00;94983.31;4982033;28;20026;-85
2023/06/15 05:16:56;;;;;;;7.25;6.65;;;;;;;19.39;100.00;94966.59;4981737;28;20030;-83
2023/06/15 05:19:21;;;;;;;8.48;7.63;;;;;;;19.75;100.00;94878.13;4981163;28;20022;-84
2023/06/15 05:21:50;;;;;;;8.13;7.43;;;;;;;19.55;100.00;94883.72;4982156;28;20056;-83
2023/06/15 05:24:15;;;;;;;9.60;8.20;;;;;;;19.58;100.00;94921.88;4980636;28;20069;-83
2023/06/15 05:26:41;;;;;;;8.68;8.10;;;;;;;19.52;100.00;94978.78;4981801;28;20034;-85
2023/06/15 05:29:06;;;;;;;8.00;7.30;;;;;;;19.40;100.00;94976.09;4976829;28;20030;-85
2023/06/15 05:31:32;;;;;;;8.85;8.25;;;;;;;19.43;100.00;94967.78;4981668;28;20030;-84
2023/06/15 05:33:58;;;;;;;8.52;7.82;;;;;;;19.28;100.00;95001.50;4979612;28;20127;-79
2023/06/15 05:36:30;;;;;;;8.70;8.00;;;;;;;19.27;100.00;94926.34;4981554;28;20045;-80
2023/06/15 05:38:56;;;;;;;8.48;7.72;;;;;;;19.17;100.00;94912.97;4981953;28;20074;-84
2023/06/15 05:41:21;;;;;;;7.82;7.22;;;;;;;19.23;100.00;94935.69;4946961;28;20536;-83
2023/06/15 05:43:47;;;;;;;8.35;7.68;;;;;;;19.19;100.00;94929.31;4980551;28;20037;-84
2023/06/15 05:46:12;;;;;;;7.90;7.30;;;;;;;19.17;100.00;94952.34;4980389;28;20038;-83
2023/06/15 05:48:37;;;;;;;8.18;7.47;;;;;;;19.11;100.00;94963.75;4980403;28;20422;-86
2023/06/15 05:51:03;;;;;;;9.02;8.18;;;;;;;19.07;100.00;94988.06;4978611;28;20038;-89
2023/06/15 05:53:29;;;;;;;10.40;9.50;;;;;;;19.02;100.00;95037.81;4982352;28;20033;-90
2023/06/15 05:55:54;;;;;;;11.80;10.85;;;;;;;19.04;100.00;95104.81;4982739;28;20137;-90
2023/06/15 05:58:20;;;;;;;10.75;10.02;;;;;;;19.09;100.00;95156.69;4965787;28;20121;-85
2023/06/15 06:00:45;;;;;;;9.23;8.63;;;;;;;19.03;100.00;95163.63;4960762;28;20057;-90
2023/06/15 06:03:10;;;;;;;9.88;9.07;;;;;;;19.04;100.00;95196.72;4981424;28;20080;-89
2023/06/15 06:05:36;;;;;;;11.05;10.15;;;;;;;18.92;100.00;95198.47;4982916;28;20020;-89
2023/06/15 06:08:02;;;;;;;8.65;8.05;;;;;;;18.91;100.00;95181.13;4965317;28;20527;-89
2023/06/15 06:10:27;;;;;;;9.98;9.20;;;;;;;18.98;100.00;95173.97;4990849;28;20112;-90
2023/06/15 06:12:53;;;;;;;9.98;9.15;;;;;;;19.01;100.00;95191.91;4985595;28;20477;-90
2023/06/15 06:15:18;;;;;;;10.43;9.57;;;;;;;19.00;100.00;95198.19;4970140;28;20499;-90
2023/06/15 06:17:44;;;;;;;11.50;10.70;;;;;;;18.96;100.00;95189.13;4983960;28;20030;-90
2023/06/15 06:20:10;;;;;;;10.80;9.80;;;;;;;18.91;100.00;95158.28;4953570;28;20045;-90
2023/06/15 06:22:36;;;;;;;10.02;9.32;;;;;;;18.93;100.00;95137.88;4967067;28;20035;-90
2023/06/15 06:25:02;;;;;;;10.40;9.60;;;;;;;19.08;100.00;95123.56;4983471;28;20085;-91
2023/06/15 06:27:27;;;;;;;10.90;10.07;;;;;;;19.07;100.00;95093.09;4985166;28;20041;-83
2023/06/15 06:29:53;;;;;;;12.85;11.80;;;;;;;19.19;100.00;95071.13;4973071;28;20435;-84
2023/06/15 06:32:18;;;;;;;12.73;11.70;;;;;;;19.09;100.00;95064.78;4966879;28;20042;-86
2023/06/15 06:34:43;;;;;;;12.82;11.82;;;;;;;19.24;100.00;95047.63;4981621;28;20125;-83
2023/06/15 06:37:09;;;;;;;11.55;10.75;;;;;;;19.29;100.00;95031.22;4978820;28;20044;-83
2023/06/15 06:39:34;;;;;;;12.25;11.38;;;;;;;19.13;100.00;94995.88;4969588;28;20039;-82
2023/06/15 06:42:00;;;;;;;14.23;11.55;;;;;;;18.94;100.00;94976.69;4975847;28;20117;-82
2023/06/15 06:44:26;;;;;;;11.43;10.52;;;;;;;19.20;100.00;94978.16;4975552;28;20041;-81
2023/06/15 06:46:51;;;;;;;11.73;10.75;;;;;;;19.23;100.00;94937.56;4972519;28;20034;-80
2023/06/15 06:49:17;;;;;;;12.60;11.50;;;;;;;19.20;100.00;94944.03;4973331;28;20041;-80
2023/06/15 06:51:42;;;;;;;11.88;10.93;;;;;;;19.26;100.00;94943.16;4968379;28;20671;-80
2023/06/15 06:54:08;;;;;;;12.95;11.52;;;;;;;19.31;100.00;94993.19;4974557;28;20022;-83
2023/06/15 06:56:34;;;;;;;10.50;9.70;;;;;;;19.23;100.00;94898.94;4960764;28;20393;-83
2023/06/15 06:58:59;;;;;;;10.15;9.30;;;;;;;19.32;100.00;94876.59;4969525;28;20153;-79
2023/06/15 07:01:25;;;;;;;11.85;10.35;;;;;;;19.30;100.00;94890.94;4980228;28;20084;-76
2023/06/15 07:03:50;;;;;;;10.00;9.35;;;;;;;19.34;100.00;94871.91;4976608;28;20038;-77
2023/06/15 07:06:15;;;;;;;10.45;9.68;;;;;;;19.41;100.00;94869.19;4979191;28;20081;-79
2023/06/15 07:08:41;;;;;;;10.70;9.77;;;;;;;19.40;100.00;94899.91;4980339;28;20407;-82
2023/06/15 07:11:06;;;;;;;9.85;9.25;;;;;;;19.47;100.00;94891.94;4984316;28;20121;-77
2023/06/15 07:13:32;;;;;;;9.82;9.02;;;;;;;19.51;100.00;94871.25;5378068;22;20481;-81
2023/06/15 07:15:57;;;;;;;10.80;9.75;;;;;;;19.58;100.00;94871.97;4991301;28;20030;-75
2023/06/15 07:18:23;;;;;;;9.95;8.68;;;;;;;19.51;100.00;94871.25;5007586;28;20041;-80
2023/06/15 07:20:53;;;;;;;9.77;8.70;;;;;;;19.58;100.00;94859.63;5010582;28;20054;-78
2023/06/15 07:23:20;;;;;;;11.20;8.20;;;;;;;19.57;100.00;94833.56;5000092;28;20734;-83
2023/06/15 07:25:46;;;;;;;10.85;9.00;;;;;;;19.69;100.00;94822.00;4977520;28;20057;-84
2023/06/15 07:28:12;;;;;;;9.27;8.32;;;;;;;19.88;100.00;94826.09;4995731;28;20065;-81
2023/06/15 07:30:37;;;;;;;8.70;8.00;;;;;;;19.90;100.00;94799.59;5003061;28;20058;-82
2023/06/15 07:33:03;;;;;;;11.88;8.07;;;;;;;20.10;100.00;94794.72;4999005;28;20022;-80
2023/06/15 07:35:28;;;;;;;8.05;7.35;;;;;;;20.25;100.00;94778.44;5000855;28;20502;-73
2023/06/15 07:37:54;;;;;;;7.63;7.10;;;;;;;20.43;100.00;94776.47;5000017;28;20029;-76
2023/06/15 07:40:19;;;;;;;10.73;7.55;;;;;;;20.48;100.00;94762.59;5001826;28;20018;-74
2023/06/15 07:42:45;;;;;;;8.40;7.85;;;;;;;20.48;100.00;94786.28;4999464;28;20041;-76
2023/06/15 07:45:10;;;;;;;7.68;7.07;;;;;;;20.58;100.00;94764.63;5001658;28;20037;-74
2023/06/15 07:47:36;;;;;;;8.40;7.63;;;;;;;20.49;100.00;94764.97;4997558;28;20505;-74
2023/06/15 07:50:01;;;;;;;7.82;7.13;;;;;;;20.68;100.00;94741.09;4990265;28;20152;-73
2023/06/15 07:52:26;;;;;;;8.60;7.95;;;;;;;20.41;100.00;94751.41;4993153;28;20034;-73
2023/06/15 07:54:52;;;;;;;7.85;7.18;;;;;;;20.54;100.00;94756.38;4996210;28;20037;-73
2023/06/15 07:57:17;;;;;;;8.10;7.40;;;;;;;20.44;100.00;94757.00;5000922;28;20614;-73
2023/06/15 07:59:43;;;;;;;8.77;7.93;;;;;;;20.63;100.00;94770.75;5000782;28;20034;-73
2023/06/15 08:02:08;;;;;;;7.82;7.13;;;;;;;20.50;100.00;94785.00;5002070;28;20511;-73
2023/06/15 08:04:33;;;;;;;8.07;7.38;;;;;;;20.79;100.00;94775.25;5000096;28;20076;-73
2023/06/15 08:06:59;;;;;;;8.15;7.55;;;;;;;20.79;100.00;94766.53;5002177;28;20026;-73
2023/06/15 08:09:24;;;;;;;9.50;8.68;;;;;;;21.04;100.00;94766.94;5002034;28;20109;-73
2023/06/15 08:11:50;;;;;;;7.68;6.95;;;;;;;21.07;100.00;94729.59;5001383;28;20484;-74
2023/06/15 08:14:16;;;;;;;7.90;7.32;;;;;;;20.72;100.00;94729.03;4987591;28;20050;-73
2023/06/15 08:16:41;;;;;;;7.78;7.18;;;;;;;21.02;100.00;94732.16;4978487;28;20027;-72
2023/06/15 08:19:07;;;;;;;7.78;7.15;;;;;;;21.33;100.00;94743.97;4977776;28;20100;-74
2023/06/15 08:21:32;;;;;;;9.45;8.02;;;;;;;21.27;100.00;94732.56;4979810;28;20046;-73
2023/06/15 08:23:58;;;;;;;8.57;7.80;;;;;;;21.23;100.00;94731.44;4980655;28;20116;-73
2023/06/15 08:26:23;;;;;;;7.82;7.25;;;;;;;21.50;100.00;94744.75;4980126;28;20037;-75
2023/06/15 08:28:48;;;;;;;7.65;7.05;;;;;;;21.69;100.00;94732.06;4970632;28;20035;-75
2023/06/15 08:31:14;;;;;;;7.30;6.63;;;;;;;21.57;100.00;94703.19;4980245;28;20133;-76
2023/06/15 08:33:39;;;;;;;6.93;6.22;;;;;;;21.95;100.00;94691.78;4980876;28;20058;-75
2023/06/15 08:36:05;;;;;;;7.70;7.03;;;;;;;21.32;100.00;94695.72;4982875;28;20034;-74
2023/06/15 08:38:31;;;;;;;7.85;7.32;;;;;;;21.69;100.00;94721.50;4980702;28;20581;-75
2023/06/15 08:40:56;;;;;;;7.97;7.15;;;;;;;21.83;100.00;94712.22;4982246;28;20022;-74
2023/06/15 08:43:22;;;;;;;8.15;6.03;;;;;;;22.09;100.00;94687.72;4980775;28;20030;-76
2023/06/15 08:45:48;;;;;;;6.97;6.30;;;;;;;21.89;100.00;94682.25;4979545;28;20613;-75
2023/06/15 08:48:16;;;;;;;6.57;5.97;;;;;;;22.10;100.00;94677.94;4972821;28;20072;-73
2023/06/15 08:50:44;;;;;;;7.28;6.68;;;;;;;22.11;100.00;94679.56;4976265;28;20061;-76
2023/06/15 08:53:10;;;;;;;6.75;6.15;;;;;;;21.87;100.00;94671.09;4979501;28;20061;-76
2023/06/15 08:55:37;;;;;;;5.97;5.50;;;;;;;22.31;100.00;94682.41;4977653;28;20528;-75
2023/06/15 08:58:05;;;;;;;7.60;5.97;;;;;;;21.97;100.00;94676.50;4962545;28;20057;-76
2023/06/15 09:00:30;;;;;;;5.15;4.55;;;;;;;21.77;100.00;94677.03;4970401;28;20023;-86
2023/06/15 09:02:58;;;;;;;5.45;4.93;;;;;;;22.00;100.00;94674.16;4973707;28;20403;-77
2023/06/15 09:05:25;;;;;;;6.13;4.97;;;;;;;21.75;100.00;94673.06;4973729;28;20030;-75
2023/06/15 09:07:50;;;;;;;6.88;5.47;;;;;;;21.72;100.00;94670.91;4978071;28;20026;-80
2023/06/15 09:10:19;;;;;;;5.63;5.15;;;;;;;21.76;100.00;94670.19;4981633;28;20033;-76
2023/06/15 09:12:50;;;;;;;7.20;5.70;;;;;;;21.56;100.00;94669.94;4979767;28;20065;-82
2023/06/15 09:15:27;;;;;;;6.60;6.00;;;;;;;21.20;100.00;94689.78;4981563;28;20038;-76
2023/06/15 09:17:54;;;;;;;5.80;5.18;;;;;;;21.47;100.00;94701.22;4978826;28;20546;-82
2023/06/15 09:20:20;;;;;;;5.80;5.32;;;;;;;21.38;100.00;94692.13;4980279;28;20026;-75
2023/06/15 09:22:47;;;;;;;8.13;7.38;;;;;;;21.39;100.00;94727.19;4979230;28;20109;-78
2023/06/15 09:25:14;;;;;;;6.55;5.95;;;;;;;22.08;100.00;94704.59;4978495;28;20030;-75
2023/06/15 09:27:40;;;;;;;5.80;5.30;;;;;;;22.11;100.00;94695.38;4980716;28;20027;-84
2023/06/15 09:30:07;;;;;;;6.65;5.90;;;;;;;22.18;100.00;94694.16;4978348;28;20061;-75
2023/06/15 09:32:32;;;;;;;11.13;10.18;;;;;;;22.04;100.00;94698.22;4980577;28;20096;-76
2023/06/15 09:34:58;;;;;;;5.80;5.40;;;;;;;21.81;100.00;94682.63;4976324;28;20789;-73
2023/06/15 09:37:25;;;;;;;6.10;5.60;;;;;;;21.96;100.00;94696.03;4978594;28;20045;-75
2023/06/15 09:39:52;;;;;;;6.93;6.00;;;;;;;21.72;100.00;94682.28;4974973;28;20034;-84
2023/06/15 09:42:18;;;;;;;5.93;5.53;;;;;;;21.54;100.00;94678.09;4980601;28;20074;-76
2023/06/15 09:44:43;;;;;;;6.18;5.63;;;;;;;21.88;100.00;94686.69;4973318;28;20134;-81
2023/06/15 09:47:17;;;;;;;6.43;5.93;;;;;;;21.99;100.00;94677.84;4978787;28;20102;-75
2023/06/15 09:49:44;;;;;;;6.55;5.78;;;;;;;21.87;100.00;94671.09;4985191;28;20457;-74
2023/06/15 09:52:13;;;;;;;5.88;5.40;;;;;;;22.11;100.00;94669.81;4983487;28;20042;-77
2023/06/15 09:54:39;;;;;;;6.20;5.70;;;;;;;22.28;100.00;94677.63;4983598;28;20026;-75
2023/06/15 09:57:04;;;;;;;5.20;4.90;;;;;;;22.45;100.00;94667.72;4981148;28;20620;-75
2023/06/15 09:59:30;;;;;;;8.82;5.20;;;;;;;22.16;100.00;94663.75;4982511;28;20030;-76
2023/06/15 10:01:56;;;;;;;6.50;6.00;;;;;;;22.24;100.00;94658.84;4983132;28;20026;-76
2023/06/15 10:04:25;;;;;;;7.95;5.38;;;;;;;22.02;100.00;94658.09;4983071;28;20026;-81
2023/06/15 10:06:55;;;;;;;6.68;6.07;;;;;;;21.63;100.00;94660.03;4983034;28;20048;-78
2023/06/15 10:09:28;;;;;;;5.72;5.30;;;;;;;21.74;100.00;94660.91;4981348;28;20117;-78
2023/06/15 10:11:55;;;;;;;6.35;5.95;;;;;;;21.91;100.00;94661.69;4968336;28;20037;-76
2023/06/15 10:15:04;;;;;;;7.22;5.70;;;;;;;22.13;100.00;94666.91;4982477;28;20575;-76
2023/06/15 10:17:34;;;;;;;;;;;;;;;22.15;100.00;94649.00;4962327;28;20027;-78
2023/06/15 10:20:08;;;;;;;6.50;6.00;;;;;;;22.24;100.00;94655.41;4980415;28;19922;-74
2023/06/15 10:22:36;;;;;;;7.25;6.35;;;;;;;22.59;100.00;94648.59;4982826;28;20034;-76
2023/06/15 10:25:02;;;;;;;5.93;5.53;;;;;;;22.86;100.00;94637.97;4983276;28;20085;-75
2023/06/15 10:27:27;;;;;;;6.07;5.55;;;;;;;23.20;100.00;94632.38;4982447;28;20042;-76
2023/06/15 10:30:07;;;;;;;6.20;5.80;;;;;;;23.09;100.00;94632.31;4981349;28;20030;-78
2023/06/15 10:32:56;;;;;;;6.70;6.07;;;;;;;22.79;100.00;94631.34;4983864;28;20113;-79
2023/06/15 10:35:32;;;;;;;7.22;6.60;;;;;;;22.44;100.00;94629.19;4981926;28;20027;-74
2023/06/15 10:38:15;;;;;;;6.45;6.05;;;;;;;22.65;100.00;94636.22;4983714;28;20556;-77
2023/06/15 10:40:47;;;;;;;8.27;7.40;;;;;;;22.54;100.00;94639.81;4982436;28;20026;-76
2023/06/15 10:43:20;;;;;;;7.10;6.57;;;;;;;22.47;100.00;94634.78;4983754;28;20026;-81
2023/06/15 10:45:47;;;;;;;6.70;6.30;;;;;;;22.27;100.00;94642.50;4984545;28;20046;-83
2023/06/15 10:48:23;;;;;;;8.05;7.20;;;;;;;22.35;100.00;94649.16;4981633;28;20045;-76
2023/06/15 10:50:51;;;;;;;8.25;7.45;;;;;;;22.58;100.00;94647.00;4984757;28;20038;-76
2023/06/15 10:53:39;;;;;;;7.72;7.18;;;;;;;22.05;100.00;94652.34;4981793;28;20041;-76
2023/06/15 10:56:20;;;;;;;8.50;7.75;;;;;;;22.02;100.00;94652.84;4980065;28;20038;-76
2023/06/15 10:58:59;;;;;;;10.10;7.20;;;;;;;21.99;100.00;94650.69;4984829;28;20037;-90
2023/06/15 11:01:25;;;;;;;7.70;7.10;;;;;;;21.74;100.00;94653.00;4982536;28;20951;-79
2023/06/15 11:03:53;;;;;;;7.18;6.57;;;;;;;21.97;100.00;94656.19;4984475;28;20034;-75
2023/06/15 11:06:21;;;;;;;7.65;7.15;;;;;;;22.14;100.00;94656.13;4983078;28;20085;-78
2023/06/15 11:08:52;;;;;;;11.10;6.63;;;;;;;21.95;100.00;94644.31;4984044;28;20030;-76
2023/06/15 11:11:33;;;;;;;8.35;7.65;;;;;;;22.02;100.00;94648.34;4983568;28;20399;-77
2023/06/15 11:14:05;;;;;;;8.18;7.57;;;;;;;22.20;100.00;94649.84;4982269;28;20092;-81
2023/06/15 11:16:37;;;;;;;6.50;6.10;;;;;;;22.03;100.00;94641.22;4984636;28;20042;-77
2023/06/15 11:19:12;;;;;;;7.20;6.65;;;;;;;22.34;100.00;94640.47;4974690;28;20040;-75
2023/06/15 11:22:04;;;;;;;7.05;6.55;;;;;;;22.25;100.00;94636.66;4982703;28;20026;-77